Time;durP1;ratioP1;P1;durP2;ratioP2;P2;SDS_P1;SDS_P2;PMS_P1;PMS_P2;Temp;Humidity;BMP_temperature;BMP_pressure;BME280_temperature;BME280_humidity;BME280_pressure;Samples;Min_cycle;Max_cycle;Signal;HPM_P1;HPM_P2
2021/05/30 00:00:48;;;;;;;6.27;3.30;;;13.00;99.90;;;;;;4974320;28;20245;-69
2021/05/30 00:03:14;;;;;;;5.27;3.13;;;13.00;99.90;;;;;;4974243;28;20203;-70
2021/05/30 00:05:41;;;;;;;5.77;3.40;;;12.90;99.90;;;;;;4977683;28;20249;-70
2021/05/30 00:08:08;;;;;;;9.40;3.20;;;12.90;99.90;;;;;;4977669;28;20249;-71
2021/05/30 00:10:35;;;;;;;4.90;3.10;;;12.80;99.90;;;;;;4977872;28;20207;-70
2021/05/30 00:13:01;;;;;;;6.00;3.80;;;12.80;99.90;;;;;;4977294;28;20261;-69
2021/05/30 00:15:28;;;;;;;6.07;3.40;;;12.80;99.90;;;;;;4977634;28;20218;-69
2021/05/30 00:17:54;;;;;;;9.83;3.53;;;12.70;99.90;;;;;;4977657;28;20271;-69
2021/05/30 00:20:21;;;;;;;7.43;3.90;;;12.70;99.90;;;;;;4977538;28;20212;-69
2021/05/30 00:22:47;;;;;;;5.43;3.50;;;12.70;99.90;;;;;;4977209;28;20207;-69
2021/05/30 00:25:14;;;;;;;6.77;4.00;;;12.70;99.90;;;;;;4977404;28;20678;-70
2021/05/30 00:27:41;;;;;;;7.40;3.67;;;12.70;99.90;;;;;;4977316;28;20239;-71
2021/05/30 00:30:08;;;;;;;5.67;3.50;;;12.60;99.90;;;;;;4977502;28;20273;-70
2021/05/30 00:32:34;;;;;;;5.37;3.57;;;12.60;99.90;;;;;;4976893;28;20269;-69
2021/05/30 00:35:01;;;;;;;6.77;3.67;;;12.60;99.90;;;;;;4977431;28;20257;-70
2021/05/30 00:37:27;;;;;;;6.97;4.07;;;12.60;99.90;;;;;;4976979;28;20239;-69
2021/05/30 00:39:54;;;;;;;7.23;3.83;;;12.50;99.90;;;;;;4977344;28;20218;-69
2021/05/30 00:42:21;;;;;;;7.17;3.83;;;12.50;99.90;;;;;;4977374;28;20233;-69
2021/05/30 00:44:47;;;;;;;6.17;3.80;;;12.50;99.90;;;;;;4977086;28;20207;-69
2021/05/30 00:47:14;;;;;;;8.93;4.70;;;12.50;99.90;;;;;;4976789;28;20230;-70
2021/05/30 00:49:40;;;;;;;7.30;4.20;;;12.40;99.90;;;;;;4977118;28;20203;-70
2021/05/30 00:52:08;;;;;;;7.63;3.53;;;12.50;99.90;;;;;;4976665;28;20245;-70
2021/05/30 00:54:36;;;;;;;6.60;3.63;;;12.60;99.90;;;;;;4976861;28;20331;-69
2021/05/30 00:57:06;;;;;;;7.10;4.27;;;12.60;99.90;;;;;;4976718;28;20234;-69
2021/05/30 00:59:33;;;;;;;7.20;4.30;;;12.50;99.90;;;;;;4976676;28;20243;-69
2021/05/30 01:02:00;;;;;;;7.90;4.13;;;12.50;99.90;;;;;;4976504;28;20211;-68
2021/05/30 01:04:26;;;;;;;8.30;4.30;;;12.50;99.90;;;;;;4976665;28;20302;-69
2021/05/30 01:06:55;;;;;;;7.83;4.40;;;12.40;99.90;;;;;;4976735;28;20237;-70
2021/05/30 01:09:24;;;;;;;9.27;4.60;;;12.40;99.90;;;;;;4976974;28;20216;-69
2021/05/30 01:11:51;;;;;;;7.10;3.83;;;12.30;99.90;;;;;;4976475;28;20203;-69
2021/05/30 01:14:17;;;;;;;11.67;4.50;;;12.40;99.90;;;;;;4976504;28;20214;-69
2021/05/30 01:16:45;;;;;;;9.37;4.97;;;12.40;99.90;;;;;;4975111;28;20234;-70
2021/05/30 01:19:13;;;;;;;9.07;4.27;;;12.30;99.90;;;;;;4976392;28;20222;-69
2021/05/30 01:21:42;;;;;;;10.20;4.90;;;12.30;99.90;;;;;;4976630;28;20626;-69
2021/05/30 01:24:10;;;;;;;10.20;4.90;;;12.30;99.90;;;;;;4976591;28;20207;-70
2021/05/30 01:26:38;;;;;;;9.67;5.30;;;12.30;99.90;;;;;;4976355;28;20262;-69
2021/05/30 01:29:05;;;;;;;7.70;4.80;;;12.30;99.90;;;;;;4976139;28;20441;-70
2021/05/30 01:31:31;;;;;;;10.30;5.63;;;12.30;99.90;;;;;;4975758;28;20302;-69
2021/05/30 01:33:57;;;;;;;9.63;4.77;;;12.30;99.90;;;;;;4976058;28;20238;-70
2021/05/30 01:36:24;;;;;;;10.00;4.90;;;12.30;99.90;;;;;;4976482;28;20544;-69
2021/05/30 01:38:50;;;;;;;12.80;4.80;;;12.30;99.90;;;;;;4976248;28;20203;-71
2021/05/30 01:41:18;;;;;;;7.97;4.87;;;12.20;99.90;;;;;;4976056;28;20211;-70
2021/05/30 01:43:44;;;;;;;9.40;4.77;;;12.20;99.90;;;;;;4976077;28;20214;-70
2021/05/30 01:46:10;;;;;;;11.27;5.13;;;12.30;99.90;;;;;;4975323;28;20269;-69
2021/05/30 01:48:36;;;;;;;8.80;4.43;;;12.30;99.90;;;;;;4976365;28;20235;-70
2021/05/30 01:51:03;;;;;;;11.03;4.83;;;12.30;99.90;;;;;;4975755;28;20677;-70
2021/05/30 01:53:35;;;;;;;10.47;4.27;;;12.30;99.90;;;;;;4975959;28;20658;-70
2021/05/30 01:58:52;;;;;;;9.70;5.63;;;12.20;99.90;;;;;;4960473;28;20203;-69
2021/05/30 02:01:18;;;;;;;9.47;4.83;;;12.00;99.90;;;;;;4975395;28;20221;-69
2021/05/30 02:03:47;;;;;;;9.70;4.97;;;12.00;99.90;;;;;;4975567;28;20269;-69
2021/05/30 02:06:18;;;;;;;12.93;5.17;;;12.10;99.90;;;;;;4975588;28;20216;-69
2021/05/30 02:08:47;;;;;;;10.73;4.63;;;12.10;99.90;;;;;;4975437;28;20231;-70
2021/05/30 02:11:14;;;;;;;9.30;4.77;;;12.00;99.90;;;;;;4975118;28;20233;-70
2021/05/30 02:13:41;;;;;;;11.80;5.27;;;12.00;99.90;;;;;;4975525;28;20218;-68
2021/05/30 02:16:09;;;;;;;10.70;5.50;;;12.00;99.90;;;;;;4975141;28;20231;-68
2021/05/30 02:18:35;;;;;;;9.63;5.27;;;11.90;99.90;;;;;;4975550;28;20227;-68
2021/05/30 02:21:01;;;;;;;9.17;5.87;;;11.90;99.90;;;;;;4975063;28;20222;-69
2021/05/30 02:23:28;;;;;;;11.20;5.87;;;12.00;99.90;;;;;;4975079;28;20214;-69
2021/05/30 02:25:54;;;;;;;9.03;5.10;;;11.90;99.90;;;;;;4974814;28;20573;-69
2021/05/30 02:28:21;;;;;;;11.30;5.73;;;11.80;99.90;;;;;;4974735;28;20246;-70
2021/05/30 02:30:47;;;;;;;10.17;4.93;;;11.70;99.90;;;;;;4974814;28;20265;-69
2021/05/30 02:33:14;;;;;;;11.40;5.47;;;11.70;99.90;;;;;;4974667;28;20265;-68
2021/05/30 02:35:40;;;;;;;9.90;5.67;;;11.70;99.90;;;;;;4974897;28;20203;-69
2021/05/30 02:38:07;;;;;;;10.87;6.00;;;11.70;99.90;;;;;;4974361;28;20237;-68
2021/05/30 02:40:33;;;;;;;8.83;5.00;;;11.70;99.90;;;;;;4974601;28;20301;-69
2021/05/30 02:42:59;;;;;;;9.17;4.57;;;11.80;99.90;;;;;;4974511;28;20295;-69
2021/05/30 02:45:26;;;;;;;10.90;5.80;;;11.80;99.90;;;;;;4974494;28;20211;-69
2021/05/30 02:47:52;;;;;;;9.67;5.33;;;11.70;99.90;;;;;;4974264;28;20243;-69
2021/05/30 02:50:20;;;;;;;9.57;5.27;;;11.70;99.90;;;;;;4974463;28;20211;-68
2021/05/30 02:52:46;;;;;;;10.93;5.07;;;11.70;99.90;;;;;;4974326;28;20211;-70
2021/05/30 02:55:14;;;;;;;10.47;4.90;;;11.70;99.90;;;;;;4974630;28;20295;-69
2021/05/30 02:57:40;;;;;;;12.10;5.37;;;11.70;99.90;;;;;;4974503;28;20229;-69
2021/05/30 03:00:09;;;;;;;12.00;5.00;;;11.70;99.90;;;;;;4974227;28;20221;-69
2021/05/30 03:02:35;;;;;;;9.40;5.30;;;11.70;99.90;;;;;;4974384;28;20249;-69
2021/05/30 03:05:01;;;;;;;9.47;5.27;;;11.70;99.90;;;;;;4974171;28;20658;-69
2021/05/30 03:07:28;;;;;;;8.13;4.80;;;11.60;99.90;;;;;;4974036;28;20252;-69
2021/05/30 03:09:55;;;;;;;11.80;5.00;;;11.50;99.90;;;;;;4974465;28;20207;-70
2021/05/30 03:12:21;;;;;;;9.50;4.97;;;11.60;99.90;;;;;;4974252;28;20219;-69
2021/05/30 03:14:48;;;;;;;8.17;5.23;;;11.50;99.90;;;;;;4974215;28;20247;-69
2021/05/30 03:17:14;;;;;;;9.03;4.63;;;11.50;99.90;;;;;;4974033;28;20613;-69
2021/05/30 03:19:40;;;;;;;10.57;5.00;;;11.40;99.90;;;;;;4974062;28;20671;-69
2021/05/30 03:22:07;;;;;;;9.10;4.77;;;11.40;99.90;;;;;;4974058;28;20203;-68
2021/05/30 03:24:36;;;;;;;9.10;5.27;;;11.50;99.90;;;;;;4974006;28;20214;-69
2021/05/30 03:27:02;;;;;;;8.30;4.90;;;11.40;99.90;;;;;;4974138;28;20318;-69
2021/05/30 03:29:28;;;;;;;11.53;4.87;;;11.40;99.90;;;;;;4974178;28;20238;-69
2021/05/30 03:31:55;;;;;;;9.87;5.60;;;11.40;99.90;;;;;;4974032;28;20211;-69
2021/05/30 03:34:21;;;;;;;10.03;4.73;;;11.40;99.90;;;;;;4974078;28;20217;-69
2021/05/30 03:36:51;;;;;;;8.53;4.63;;;11.40;99.90;;;;;;4973652;28;20613;-69
2021/05/30 03:39:18;;;;;;;8.33;4.80;;;11.40;99.90;;;;;;4975951;28;20222;-70
2021/05/30 03:41:52;;;;;;;8.90;4.77;;;11.30;99.90;;;;;;4978144;28;20207;-69
2021/05/30 03:44:18;;;;;;;10.00;4.80;;;11.20;99.90;;;;;;4977921;28;20755;-69
2021/05/30 03:46:45;;;;;;;10.50;4.47;;;11.30;99.90;;;;;;4977511;28;20234;-69
2021/05/30 03:49:11;;;;;;;8.73;4.93;;;11.30;99.90;;;;;;4977617;28;20261;-69
2021/05/30 03:51:38;;;;;;;8.73;4.63;;;11.30;99.90;;;;;;4977699;28;20635;-69
2021/05/30 03:54:04;;;;;;;9.27;4.73;;;11.40;99.90;;;;;;4977776;28;20207;-71
2021/05/30 03:56:31;;;;;;;10.37;5.20;;;11.30;99.90;;;;;;4977690;28;20235;-69
2021/05/30 03:58:58;;;;;;;8.73;5.43;;;11.30;99.90;;;;;;4977576;28;20211;-69
2021/05/30 04:01:24;;;;;;;9.53;5.13;;;11.40;99.90;;;;;;4977477;28;20226;-68
2021/05/30 04:03:51;;;;;;;11.03;5.73;;;11.50;99.90;;;;;;4977486;28;20211;-69
2021/05/30 04:06:17;;;;;;;9.43;5.53;;;11.50;99.90;;;;;;4977647;28;20231;-69
2021/05/30 04:08:46;;;;;;;11.83;5.57;;;11.70;99.90;;;;;;4977492;28;20231;-69
2021/05/30 04:11:13;;;;;;;11.37;5.77;;;11.70;99.90;;;;;;4977135;28;20208;-68
2021/05/30 04:13:39;;;;;;;10.03;5.50;;;11.90;99.90;;;;;;4977203;28;20218;-68
2021/05/30 04:16:06;;;;;;;10.63;5.80;;;11.90;99.90;;;;;;4976944;28;20218;-69
2021/05/30 04:18:33;;;;;;;11.30;6.20;;;12.20;99.90;;;;;;4977439;28;20207;-69
2021/05/30 04:20:59;;;;;;;9.97;5.33;;;12.20;99.90;;;;;;4977482;28;20213;-69
2021/05/30 04:23:25;;;;;;;14.43;7.33;;;12.20;99.90;;;;;;4977236;28;20215;-69
2021/05/30 04:25:52;;;;;;;10.60;5.80;;;12.10;99.90;;;;;;4977086;28;20203;-70
2021/05/30 04:28:19;;;;;;;11.70;6.03;;;12.00;99.90;;;;;;4977003;28;20245;-70
2021/05/30 04:30:45;;;;;;;11.77;5.67;;;12.20;99.90;;;;;;4976973;28;20210;-70
2021/05/30 04:33:12;;;;;;;12.40;5.87;;;12.00;99.90;;;;;;4977064;28;20207;-69
2021/05/30 04:35:38;;;;;;;9.37;5.90;;;12.00;99.90;;;;;;4977144;28;20217;-69
2021/05/30 04:38:05;;;;;;;10.80;6.10;;;12.30;99.90;;;;;;4977032;28;20227;-68
2021/05/30 04:40:32;;;;;;;13.07;6.50;;;12.40;99.90;;;;;;4976887;28;20215;-70
2021/05/30 04:42:58;;;;;;;14.23;6.47;;;12.50;99.90;;;;;;4976791;28;20613;-69
2021/05/30 04:45:25;;;;;;;13.13;6.03;;;12.30;99.90;;;;;;4976772;28;20568;-70
2021/05/30 04:47:51;;;;;;;11.87;5.97;;;12.50;99.90;;;;;;4976613;28;20239;-70
2021/05/30 04:50:18;;;;;;;12.33;6.70;;;12.40;99.90;;;;;;4976612;28;20214;-71
2021/05/30 04:52:45;;;;;;;14.93;6.87;;;12.40;99.90;;;;;;4976523;28;20214;-69
2021/05/30 04:55:12;;;;;;;15.00;7.40;;;12.40;99.90;;;;;;4976726;28;20211;-69
2021/05/30 04:57:39;;;;;;;13.10;6.80;;;12.50;99.90;;;;;;4976759;28;20281;-69
2021/05/30 05:00:08;;;;;;;14.87;7.20;;;12.20;99.90;;;;;;4976284;28;20218;-69
2021/05/30 05:02:34;;;;;;;11.17;6.23;;;12.20;99.90;;;;;;4976312;28;20207;-70
2021/05/30 05:05:01;;;;;;;13.57;6.63;;;12.40;99.90;;;;;;4976607;28;20214;-69
2021/05/30 05:07:28;;;;;;;12.80;6.47;;;12.70;99.90;;;;;;4976435;28;20587;-69
2021/05/30 05:09:55;;;;;;;13.53;6.33;;;12.80;99.90;;;;;;4976371;28;20294;-69
2021/05/30 05:12:21;;;;;;;12.23;6.10;;;12.80;99.90;;;;;;4976519;28;20273;-68
2021/05/30 05:14:47;;;;;;;14.00;6.50;;;12.90;99.90;;;;;;4976498;28;20208;-69
2021/05/30 05:17:14;;;;;;;14.40;7.37;;;13.00;99.90;;;;;;4976098;28;20281;-69
2021/05/30 05:19:41;;;;;;;11.80;6.47;;;13.10;99.90;;;;;;4976338;28;20298;-69
2021/05/30 05:22:07;;;;;;;16.87;7.23;;;13.10;99.90;;;;;;4976179;28;20250;-69
2021/05/30 05:24:34;;;;;;;11.50;6.40;;;13.10;99.90;;;;;;4975975;28;20249;-69
2021/05/30 05:27:01;;;;;;;12.13;6.27;;;12.90;99.90;;;;;;4975845;28;20317;-69
2021/05/30 05:29:27;;;;;;;12.67;6.93;;;12.80;99.90;;;;;;4976120;28;20239;-69
2021/05/30 05:31:53;;;;;;;12.40;6.07;;;13.00;99.90;;;;;;4975817;28;20670;-70
2021/05/30 05:34:20;;;;;;;11.30;6.30;;;13.30;99.90;;;;;;4975866;28;20210;-69
2021/05/30 05:36:46;;;;;;;13.83;6.67;;;13.50;99.90;;;;;;4975533;28;20706;-71
2021/05/30 05:39:12;;;;;;;11.47;6.80;;;14.20;99.90;;;;;;4975719;28;20211;-69
2021/05/30 05:41:40;;;;;;;13.97;6.57;;;15.00;99.90;;;;;;4975625;28;20341;-69
2021/05/30 05:44:06;;;;;;;14.53;6.80;;;15.70;99.90;;;;;;4975646;28;20203;-69
2021/05/30 05:46:33;;;;;;;10.73;5.90;;;16.20;99.90;;;;;;4975519;28;20297;-69
2021/05/30 05:48:59;;;;;;;12.70;6.67;;;16.60;99.90;;;;;;4975268;28;20258;-69
2021/05/30 05:51:25;;;;;;;12.43;6.40;;;16.60;99.90;;;;;;4975458;28;20304;-68
2021/05/30 05:53:52;;;;;;;12.73;7.13;;;16.70;99.90;;;;;;4975291;28;20214;-69
2021/05/30 05:56:18;;;;;;;13.00;7.00;;;17.00;99.90;;;;;;4975541;28;20235;-69
2021/05/30 05:58:45;;;;;;;9.93;6.43;;;17.40;99.90;;;;;;4975634;28;20218;-70
2021/05/30 06:01:13;;;;;;;11.10;6.83;;;17.80;99.90;;;;;;4975084;28;20222;-70
2021/05/30 06:03:39;;;;;;;11.53;6.83;;;17.60;99.90;;;;;;4975472;28;20298;-69
2021/05/30 06:06:06;;;;;;;11.60;7.22;;;18.30;99.90;;;;;;4975191;28;20211;-68
2021/05/30 06:08:32;;;;;;;11.88;7.13;;;18.90;99.90;;;;;;4975040;28;20326;-69
2021/05/30 06:10:58;;;;;;;11.13;6.78;;;19.40;99.90;;;;;;4975130;28;20307;-69
2021/05/30 06:13:25;;;;;;;10.88;6.95;;;20.10;99.90;;;;;;4975608;28;20242;-69
2021/05/30 06:15:52;;;;;;;12.73;6.97;;;21.00;99.90;;;;;;4975090;28;20203;-70
2021/05/30 06:18:21;;;;;;;12.57;6.30;;;21.80;99.90;;;;;;4975184;28;20317;-69
2021/05/30 06:20:48;;;;;;;12.68;6.32;;;22.40;99.90;;;;;;4974898;28;20305;-70
2021/05/30 06:23:14;;;;;;;11.75;6.78;;;23.00;99.90;;;;;;4974655;28;20570;-70
2021/05/30 06:25:42;;;;;;;11.68;6.93;;;23.80;99.10;;;;;;4975270;28;20213;-70
2021/05/30 06:28:09;;;;;;;10.50;6.70;;;24.30;98.10;;;;;;4974799;28;20797;-70
2021/05/30 06:30:37;;;;;;;11.77;6.90;;;24.60;97.70;;;;;;4974934;28;20213;-70
2021/05/30 06:33:05;;;;;;;10.43;6.68;;;24.90;96.50;;;;;;4974982;28;20204;-70
2021/05/30 06:35:32;;;;;;;9.35;6.38;;;24.70;96.60;;;;;;4974742;28;20257;-70
2021/05/30 06:38:00;;;;;;;9.88;6.75;;;24.70;95.70;;;;;;4974431;28;20282;-70
2021/05/30 06:40:26;;;;;;;10.18;6.88;;;24.60;95.60;;;;;;4974799;28;20266;-68
2021/05/30 06:42:53;;;;;;;10.10;6.63;;;24.20;95.50;;;;;;4974751;28;20203;-68
2021/05/30 06:45:20;;;;;;;11.23;7.28;;;23.80;96.00;;;;;;4974701;28;20203;-68
2021/05/30 06:47:46;;;;;;;9.07;6.38;;;24.00;95.80;;;;;;4975815;28;20332;-70
2021/05/30 06:50:14;;;;;;;9.40;6.68;;;23.80;96.60;;;;;;4987420;28;20322;-71
2021/05/30 06:52:41;;;;;;;11.52;6.68;;;23.90;95.90;;;;;;4990097;28;20214;-71
2021/05/30 06:55:08;;;;;;;10.05;6.68;;;23.70;96.00;;;;;;4992617;28;20206;-71
2021/05/30 06:57:35;;;;;;;9.50;6.47;;;24.00;96.10;;;;;;4982138;28;20369;-79
2021/05/30 07:00:01;;;;;;;9.65;6.50;;;23.80;96.40;;;;;;4972183;28;20215;-70
2021/05/30 07:02:27;;;;;;;8.80;6.45;;;23.80;96.30;;;;;;4974238;28;20298;-70
2021/05/30 07:04:54;;;;;;;9.63;6.35;;;24.40;96.20;;;;;;4975693;28;20203;-70
2021/05/30 07:07:21;;;;;;;9.55;6.60;;;25.00;94.70;;;;;;4985116;28;20697;-70
2021/05/30 07:09:47;;;;;;;11.10;6.80;;;24.80;95.10;;;;;;4974186;28;20234;-70
2021/05/30 07:12:14;;;;;;;10.27;6.88;;;24.50;95.30;;;;;;4973918;28;20213;-70
2021/05/30 07:14:40;;;;;;;8.73;6.18;;;24.70;94.90;;;;;;4972596;28;20213;-72
2021/05/30 07:17:06;;;;;;;9.55;6.80;;;25.10;94.70;;;;;;4986794;28;20230;-70
2021/05/30 07:19:32;;;;;;;9.82;7.30;;;25.90;93.30;;;;;;4993306;28;20546;-70
2021/05/30 07:21:59;;;;;;;11.77;7.03;;;25.90;93.50;;;;;;4993722;28;20652;-70
2021/05/30 07:24:26;;;;;;;9.52;6.10;;;26.40;92.80;;;;;;4993786;28;20206;-71
2021/05/30 07:26:53;;;;;;;9.65;6.65;;;26.60;92.80;;;;;;4993442;28;20232;-70
2021/05/30 07:29:19;;;;;;;12.23;7.00;;;26.70;92.10;;;;;;4993350;28;20234;-70
2021/05/30 07:31:47;;;;;;;9.27;6.20;;;26.30;92.50;;;;;;4993529;28;20214;-71
2021/05/30 07:34:14;;;;;;;9.70;6.70;;;26.60;92.10;;;;;;4993286;28;20255;-71
2021/05/30 07:36:41;;;;;;;10.43;5.90;;;27.00;91.80;;;;;;4993219;28;20230;-71
2021/05/30 07:39:07;;;;;;;10.30;6.45;;;27.50;90.60;;;;;;4993320;28;20217;-70
2021/05/30 07:41:35;;;;;;;10.93;6.43;;;27.40;90.30;;;;;;4993536;28;20203;-71
2021/05/30 07:44:01;;;;;;;9.65;6.47;;;27.20;90.20;;;;;;4993350;28;20206;-70
2021/05/30 07:46:28;;;;;;;9.20;6.20;;;26.80;90.70;;;;;;4992965;28;20226;-71
2021/05/30 07:48:54;;;;;;;8.82;5.97;;;26.80;90.80;;;;;;4992970;28;20244;-71
2021/05/30 07:51:21;;;;;;;8.57;5.88;;;26.20;90.70;;;;;;4993395;28;20214;-71
2021/05/30 07:53:48;;;;;;;11.18;6.22;;;25.60;91.50;;;;;;4993146;28;20302;-71
2021/05/30 07:56:14;;;;;;;8.93;5.90;;;26.00;92.00;;;;;;4993238;28;20728;-71
2021/05/30 07:58:42;;;;;;;11.38;6.43;;;26.80;91.30;;;;;;4993304;28;20213;-71
2021/05/30 08:01:08;;;;;;;7.95;5.32;;;27.10;90.30;;;;;;4992722;28;20214;-71
2021/05/30 08:03:34;;;;;;;8.35;5.75;;;27.60;89.80;;;;;;4993257;28;20203;-70
2021/05/30 08:06:00;;;;;;;8.38;5.93;;;27.80;86.50;;;;;;4993173;28;20213;-71
2021/05/30 08:08:27;;;;;;;8.10;5.20;;;27.60;89.50;;;;;;4992969;28;20281;-71
2021/05/30 08:10:53;;;;;;;9.05;5.90;;;27.40;89.60;;;;;;4993018;28;20202;-71
2021/05/30 08:13:19;;;;;;;7.50;5.15;;;27.70;88.10;;;;;;4993132;28;20206;-71
2021/05/30 08:15:47;;;;;;;7.60;4.90;;;27.20;89.20;;;;;;4992759;28;20558;-70
2021/05/30 08:18:13;;;;;;;8.88;5.22;;;27.60;87.10;;;;;;4993196;28;20226;-71
2021/05/30 08:20:40;;;;;;;6.78;4.65;;;26.60;87.70;;;;;;4993093;28;20669;-71
2021/05/30 08:23:06;;;;;;;11.57;5.53;;;26.20;90.10;;;;;;4993285;28;20220;-71
2021/05/30 08:25:33;;;;;;;7.30;5.13;;;26.90;88.40;;;;;;4994853;28;20212;-71
2021/05/30 08:27:59;;;;;;;7.63;4.88;;;26.10;90.60;;;;;;4996276;28;20253;-71
2021/05/30 08:30:26;;;;;;;8.38;5.85;;;25.80;90.90;;;;;;4996842;28;20213;-71
2021/05/30 08:32:53;;;;;;;7.40;4.63;;;26.90;89.30;;;;;;4996216;28;20206;-71
2021/05/30 08:35:20;;;;;;;5.95;4.35;;;27.00;87.60;;;;;;4996226;28;20313;-71
2021/05/30 08:37:46;;;;;;;5.38;4.50;;;26.00;89.30;;;;;;4996110;28;20230;-71
2021/05/30 08:40:15;;;;;;;6.45;4.60;;;25.80;90.60;;;;;;4996361;28;20210;-71
2021/05/30 08:42:44;;;;;;;11.43;5.00;;;24.90;90.60;;;;;;4996409;28;20206;-71
2021/05/30 08:45:10;;;;;;;5.65;4.03;;;25.30;90.60;;;;;;4996079;28;20669;-71
2021/05/30 08:47:37;;;;;;;7.07;4.28;;;25.70;90.40;;;;;;4996122;28;20227;-71
2021/05/30 08:50:05;;;;;;;6.57;4.38;;;25.80;90.40;;;;;;4996343;28;20209;-71
2021/05/30 08:52:33;;;;;;;7.13;4.40;;;26.10;90.00;;;;;;4996417;28;20210;-71
2021/05/30 08:55:00;;;;;;;7.75;5.32;;;25.80;89.70;;;;;;4996390;28;20260;-72
2021/05/30 08:57:27;;;;;;;7.78;4.82;;;25.60;89.90;;;;;;4996049;28;20230;-71
2021/05/30 08:59:55;;;;;;;6.75;4.18;;;26.40;88.50;;;;;;4995792;28;20254;-71
2021/05/30 09:02:22;;;;;;;6.63;4.28;;;26.20;88.50;;;;;;4996034;28;20264;-71
2021/05/30 09:04:52;;;;;;;5.72;4.25;;;26.20;87.30;;;;;;4996071;28;20202;-71
2021/05/30 09:07:20;;;;;;;5.25;3.42;;;25.00;89.00;;;;;;4995658;28;20719;-71
2021/05/30 09:09:47;;;;;;;6.57;3.78;;;25.10;89.80;;;;;;4995603;28;20241;-71
2021/05/30 09:12:21;;;;;;;6.22;4.05;;;24.50;88.10;;;;;;4995527;28;20213;-71
2021/05/30 09:14:50;;;;;;;7.00;4.05;;;24.00;90.80;;;;;;4995872;28;20209;-71
2021/05/30 09:17:16;;;;;;;6.88;4.20;;;24.50;89.60;;;;;;4995396;28;20268;-71
2021/05/30 09:19:53;;;;;;;6.95;4.07;;;24.40;89.60;;;;;;4995173;28;20696;-71
2021/05/30 09:22:37;;;;;;;4.97;3.72;;;23.90;90.80;;;;;;4995449;28;20210;-71
2021/05/30 09:25:15;;;;;;;6.47;4.30;;;23.40;90.70;;;;;;4995567;28;20234;-71
2021/05/30 09:27:47;;;;;;;5.20;3.55;;;23.30;90.40;;;;;;4994966;28;20736;-71
2021/05/30 09:30:20;;;;;;;6.07;3.47;;;23.00;91.40;;;;;;4995334;28;20217;-71
2021/05/30 09:32:53;;;;;;;7.53;3.60;;;22.90;91.10;;;;;;4995047;28;20208;-71
2021/05/30 09:35:20;;;;;;;5.97;3.83;;;22.60;90.90;;;;;;4995054;28;20557;-71
2021/05/30 09:37:57;;;;;;;5.47;3.65;;;21.90;91.90;;;;;;4994449;28;20236;-71
2021/05/30 09:40:35;;;;;;;4.95;3.47;;;21.60;91.50;;;;;;4995340;28;20216;-71
2021/05/30 09:43:04;;;;;;;5.90;3.33;;;21.80;92.40;;;;;;4995421;28;20210;-71
2021/05/30 09:45:31;;;;;;;5.25;3.40;;;21.80;92.60;;;;;;4994879;28;20210;-71
2021/05/30 09:47:57;;;;;;;6.93;3.63;;;22.50;91.40;;;;;;4995044;28;20593;-70
2021/05/30 09:50:23;;;;;;;6.60;3.03;;;22.90;90.90;;;;;;4995158;28;20211;-71
2021/05/30 09:52:51;;;;;;;4.72;2.70;;;22.00;90.90;;;;;;4995078;28;20217;-71
2021/05/30 09:55:20;;;;;;;3.70;2.50;;;21.90;91.40;;;;;;4994885;28;20264;-71
2021/05/30 09:58:05;;;;;;;4.22;2.33;;;21.90;88.50;;;;;;4994823;28;20258;-71
2021/05/30 10:00:32;;;;;;;3.97;2.90;;;21.20;91.10;;;;;;4994800;28;20248;-71
2021/05/30 10:02:58;;;;;;;4.68;2.70;;;21.10;91.70;;;;;;4994708;28;20609;-71
2021/05/30 10:05:25;;;;;;;5.07;2.78;;;21.30;92.40;;;;;;4995030;28;20219;-71
2021/05/30 10:07:54;;;;;;;4.47;2.80;;;21.50;92.50;;;;;;4994598;28;20237;-71
2021/05/30 10:10:21;;;;;;;3.20;2.15;;;21.40;91.40;;;;;;4994694;28;20577;-71
2021/05/30 10:12:48;;;;;;;6.15;2.50;;;20.80;91.90;;;;;;4994619;28;20242;-71
2021/05/30 10:15:14;;;;;;;3.40;2.60;;;20.40;92.60;;;;;;4994687;28;20203;-71
2021/05/30 10:17:42;;;;;;;4.63;2.85;;;20.30;93.30;;;;;;4994418;28;20222;-71
2021/05/30 10:20:12;;;;;;;4.07;2.53;;;20.30;94.30;;;;;;4994422;28;20216;-70
2021/05/30 10:22:41;;;;;;;3.88;2.47;;;20.30;92.40;;;;;;4994364;28;20216;-71
2021/05/30 10:25:09;;;;;;;3.88;2.25;;;20.20;91.40;;;;;;4994290;28;20221;-71
2021/05/30 10:27:37;;;;;;;4.22;2.20;;;20.30;91.10;;;;;;4994381;28;20227;-71
2021/05/30 10:30:17;;;;;;;2.50;1.75;;;20.60;90.70;;;;;;4994314;28;20265;-71
2021/05/30 10:32:45;;;;;;;3.65;2.00;;;20.20;88.40;;;;;;4994196;28;20229;-70
2021/05/30 10:35:16;;;;;;;3.80;2.00;;;20.00;90.40;;;;;;4994140;28;20207;-71
2021/05/30 10:37:44;;;;;;;2.63;1.65;;;20.00;90.90;;;;;;4993962;28;20775;-71
2021/05/30 10:40:27;;;;;;;2.83;1.80;;;20.20;90.70;;;;;;4994197;28;20214;-70
2021/05/30 10:43:15;;;;;;;3.50;2.05;;;20.20;88.50;;;;;;4993957;28;20233;-70
2021/05/30 10:46:01;;;;;;;2.55;1.80;;;20.40;90.60;;;;;;4993843;28;20297;-71
2021/05/30 10:48:27;;;;;;;3.00;2.00;;;20.30;90.60;;;;;;4993943;28;20266;-71
2021/05/30 10:51:24;;;;;;;2.88;1.98;;;20.30;90.80;;;;;;4994189;28;20265;-71
2021/05/30 10:53:52;;;;;;;3.40;1.80;;;20.30;89.00;;;;;;4994020;28;20707;-71
2021/05/30 10:56:26;;;;;;;2.25;1.65;;;20.10;89.30;;;;;;4993859;28;20368;-71
2021/05/30 10:59:32;;;;;;;3.38;2.10;;;20.20;90.20;;;;;;4993982;28;20577;-71
2021/05/30 11:02:03;;;;;;;2.35;1.73;;;20.20;88.00;;;;;;4993860;28;20252;-71
2021/05/30 11:04:39;;;;;;;2.92;1.40;;;20.20;88.10;;;;;;4993712;28;20220;-71
2021/05/30 11:07:38;;;;;;;3.78;2.45;;;20.20;88.50;;;;;;4993750;28;20226;-71
2021/05/30 11:10:18;;;;;;;3.03;2.08;;;20.10;89.90;;;;;;4993546;28;20285;-71
2021/05/30 11:12:56;;;;;;;3.08;1.88;;;20.10;89.00;;;;;;4993479;28;20214;-71
2021/05/30 11:15:30;;;;;;;2.07;1.77;;;20.20;89.00;;;;;;4993871;28;20244;-71
2021/05/30 11:17:59;;;;;;;2.50;1.57;;;20.20;90.40;;;;;;4993816;28;20620;-71
2021/05/30 11:20:28;;;;;;;3.03;2.00;;;20.20;89.40;;;;;;4993788;28;20211;-71
2021/05/30 11:22:57;;;;;;;2.25;1.75;;;20.10;86.80;;;;;;4993554;28;20662;-71
2021/05/30 11:25:32;;;;;;;2.70;1.50;;;20.20;86.80;;;;;;4993435;28;20547;-72
2021/05/30 11:28:00;;;;;;;1.73;1.40;;;20.20;86.00;;;;;;4993393;28;20225;-72
2021/05/30 11:30:58;;;;;;;1.38;1.13;;;20.30;85.50;;;;;;4993605;28;20733;-71
2021/05/30 11:33:43;;;;;;;2.67;1.73;;;20.40;85.80;;;;;;4993215;28;20662;-71
2021/05/30 11:36:29;;;;;;;1.80;1.42;;;20.30;85.30;;;;;;4993209;28;20290;-71
2021/05/30 11:38:57;;;;;;;2.53;1.40;;;20.50;86.70;;;;;;4990090;28;20203;-71
2021/05/30 11:41:29;;;;;;;2.72;1.77;;;20.50;87.20;;;;;;4993140;28;20217;-71
2021/05/30 11:44:04;;;;;;;3.33;1.42;;;20.40;83.90;;;;;;4992944;28;20213;-71
2021/05/30 11:46:34;;;;;;;2.65;1.50;;;20.40;83.50;;;;;;4993139;28;20226;-71
2021/05/30 11:49:07;;;;;;;2.90;1.70;;;20.20;84.30;;;;;;4993300;28;20803;-71
2021/05/30 11:52:00;;;;;;;2.13;1.50;;;20.40;85.50;;;;;;4993317;28;20210;-71
2021/05/30 11:54:29;;;;;;;2.60;1.80;;;20.60;84.40;;;;;;4993257;28;20721;-71
2021/05/30 11:56:58;;;;;;;1.88;1.40;;;20.70;84.40;;;;;;4992921;28;20309;-71
2021/05/30 11:59:35;;;;;;;2.85;1.90;;;20.80;86.50;;;;;;4994052;28;20207;-71
2021/05/30 12:02:03;;;;;;;2.85;1.95;;;20.90;88.00;;;;;;4996954;28;20206;-71
2021/05/30 12:04:36;;;;;;;1.52;1.35;;;20.90;85.30;;;;;;4997147;28;20657;-71
2021/05/30 12:07:03;;;;;;;5.82;1.45;;;21.10;87.70;;;;;;4996863;28;20226;-71
2021/05/30 12:09:48;;;;;;;2.00;1.42;;;20.90;85.30;;;;;;4997212;28;20242;-71
2021/05/30 12:12:29;;;;;;;2.85;1.92;;;20.70;87.80;;;;;;4996620;28;20650;-71
2021/05/30 12:15:10;;;;;;;3.75;1.70;;;20.60;89.20;;;;;;4996702;28;20577;-72
2021/05/30 12:17:37;;;;;;;2.30;1.70;;;20.70;89.10;;;;;;4996351;28;20616;-71
2021/05/30 12:20:06;;;;;;;3.45;1.60;;;20.60;89.60;;;;;;4996630;28;20665;-71
2021/05/30 12:22:33;;;;;;;2.45;1.70;;;20.70;89.40;;;;;;4996828;28;20228;-71
2021/05/30 12:25:00;;;;;;;2.83;1.70;;;20.50;89.60;;;;;;4996695;28;20561;-71
2021/05/30 12:27:27;;;;;;;2.67;1.70;;;20.60;89.20;;;;;;4996395;28;20280;-71
2021/05/30 12:29:54;;;;;;;2.65;1.70;;;20.80;90.10;;;;;;4996337;28;20340;-71
2021/05/30 12:32:22;;;;;;;2.63;1.55;;;20.90;90.00;;;;;;4996373;28;20214;-72
2021/05/30 12:34:50;;;;;;;2.38;1.70;;;20.90;89.50;;;;;;4996715;28;20206;-72
2021/05/30 12:37:17;;;;;;;1.63;1.27;;;20.80;87.70;;;;;;4996402;28;20272;-72
2021/05/30 12:39:44;;;;;;;1.70;1.40;;;20.70;90.00;;;;;;4996735;28;20210;-72
2021/05/30 12:42:12;;;;;;;3.13;2.00;;;20.70;90.60;;;;;;4996382;28;20206;-71
2021/05/30 12:44:41;;;;;;;3.00;1.80;;;20.90;89.00;;;;;;4996319;28;20203;-71
2021/05/30 12:47:11;;;;;;;4.03;1.83;;;21.10;90.00;;;;;;4996386;28;20229;-71
2021/05/30 12:49:38;;;;;;;3.75;1.70;;;21.20;89.50;;;;;;4996381;28;20316;-71
2021/05/30 12:52:07;;;;;;;3.00;1.80;;;21.20;88.10;;;;;;4996111;28;20206;-71